Terminal Aerodrome Forecast
Issued by NWS Columbia, SC

Home | Current Version | Previous Version | Text Only | Print | Product List | Glossary On
Versions: 1 2 3 4 5 6 7 8 9 10 11 12 13 14 15 16 17 18 19 20 21 22 23 24 25
000
FTUS42 KCAE 171345 AAA
TAFCAE
TAF AMD
KCAE 171345Z 1714/1812 31005KT 6SM -RASN SCT015 OVC045
     FM171600 31008KT 4SM -SN SCT008 OVC035
     FM172200 31009KT 6SM BR SCT008 OVC030
     FM180000 32010KT P6SM SCT035=

USA.gov is the U.S. government's official web portal to all federal, state and local government web resources and services.